Flight Track Log - Related Links

Times and Time Zones

All times are in EDT time to prevent confusion due to time zone crossing. See the SWA1969 flight status page for this flight to view local times or setup timezone preferences in your user account.

Time Position Orientation Groundspeed Altitude Reporting Facility
EDT Latitude Longitude Course Direction KTS MPH feet Rate Location/Type
Tue 01:21:29 PM 41.7667 -87.7833 255° West 159 183 2,200  Level Chicago TRACON
Tue 01:22:29 PM 41.7500 -87.8667 255° West 248 285 3,000 490 Climbing Chicago TRACON
Tue 01:23:07 PM 41.7467 -87.9211 265° West 246 283 3,000 667 Level Chicago Center
Tue 01:24:08 PM 41.7467 -88.0114 270° West 246 283 4,100 973 Climbing Chicago Center
Tue 01:26:12 PM 41.7844 -88.1964 285° West 258 297 6,000 645 Climbing Chicago Center
Tue 01:27:14 PM 41.7889 -88.2917 274° West 258 297 6,100 1,548 Climbing Chicago Center
Tue 01:28:16 PM 41.7975 -88.4078 276° West 263 303 9,200 2,419 Climbing Chicago Center
Tue 01:29:18 PM 41.7931 -88.5119 267° West 290 334 11,100 1,742 Climbing Chicago Center
Tue 01:30:20 PM 41.7675 -88.6294 254° West 330 380 12,800 2,129 Climbing Chicago Center
Tue 01:31:22 PM 41.7403 -88.7558 254° West 353 406 15,500 2,419 Climbing Chicago Center
Tue 01:32:24 PM 41.7133 -88.8828 254° West 357 411 17,800 1,984 Climbing Chicago Center
Tue 01:33:26 PM 41.6786 -89.0417 254° West 373 429 19,600 1,887 Climbing Chicago Center
Tue 01:34:28 PM 41.6483 -89.1817 254° West 392 451 21,700 1,935 Climbing Chicago Center
Tue 01:35:30 PM 41.6183 -89.3222 254° West 395 455 23,600 1,694 Climbing Chicago Center
Tue 01:36:32 PM 41.5881 -89.4636 254° West 397 457 25,200 1,597 Climbing Chicago Center
Tue 01:37:34 PM 41.5506 -89.6272 253° West 403 464 26,900 1,694 Climbing Chicago Center
Tue 01:38:36 PM 41.5203 -89.7692 254° West 400 460 28,700 1,694 Climbing Chicago Center
Tue 01:39:38 PM 41.4886 -89.9078 253° West 395 455 30,400 1,597 Climbing Chicago Center
Tue 01:40:40 PM 41.4586 -90.0428 254° West 385 443 32,000 1,016 Climbing Chicago Center
Tue 01:41:42 PM 41.4286 -90.1756 253° West 378 435 32,500 726 Climbing Chicago Center
Tue 01:42:44 PM 41.3975 -90.3092 253° West 380 437 33,500 1,548 Climbing Chicago Center
Tue 01:43:46 PM 41.3622 -90.4664 253° West 373 429 35,700 1,210 Climbing Chicago Center
Tue 01:44:48 PM 41.3328 -90.5908 253° West 360 414 36,000 145 Climbing Chicago Center
Tue 01:45:50 PM 41.2986 -90.7169 250° West 364 419 36,000  Level Chicago Center
Tue 01:46:52 PM 41.2628 -90.8397 249° West 358 412 36,000  Level Chicago Center
Tue 01:47:54 PM 41.2258 -90.9619 248° West 356 410 36,000  Level Chicago Center
Tue 01:48:56 PM 41.1892 -91.0847 248° West 358 412 36,000  Level Chicago Center
Tue 01:49:58 PM 41.1467 -91.2306 249° West 355 409 36,000  Level Chicago Center
Tue 01:51:00 PM 41.1094 -91.3503 248° West 352 405 36,000  Level Chicago Center
Tue 01:52:02 PM 41.0739 -91.4708 249° West 352 405 36,000  Level Chicago Center
Tue 01:53:04 PM 41.0378 -91.5900 248° West 349 402 36,000  Level Chicago Center
Tue 01:54:06 PM 40.9967 -91.7239 248° West 353 406 36,000  Level Chicago Center
Tue 01:55:08 PM 40.9606 -91.8417 248° West 349 402 36,000  Level Chicago Center
Tue 01:56:10 PM 40.9242 -91.9619 248° West 353 406 36,000  Level Chicago Center
Tue 01:57:12 PM 40.8878 -92.0800 248° West 350 403 36,000  Level Chicago Center
Tue 01:58:14 PM 40.8514 -92.1986 248° West 352 405 36,000  Level Chicago Center
Tue 01:59:16 PM 40.8061 -92.3414 247° West 354 407 36,000  Level Chicago Center
Tue 02:00:19 PM 40.7694 -92.4597 248° West 353 406 36,000  Level Chicago Center
Tue 02:01:21 PM 40.7314 -92.5792 247° West 356 410 36,000  Level Chicago Center
Tue 02:02:23 PM 40.6939 -92.6975 247° West 356 410 36,000  Level Chicago Center
Tue 02:03:25 PM 40.6483 -92.8389 247° West 354 407 36,000  Level Chicago Center
Tue 02:04:27 PM 40.6117 -92.9556 248° West 352 405 36,000  Level Chicago Center
Tue 02:05:28 PM 40.5744 -93.0714 247° West 349 402 36,000  Level Chicago Center
Tue 02:06:30 PM 40.5372 -93.1897 248° West 353 406 36,000  Level Chicago Center
Tue 02:07:32 PM 40.4911 -93.3294 247° West 352 405 36,000  Level Chicago Center
Tue 02:08:45 PM 40.4458 -93.4697 247° West 351 404 36,000  Level Kansas City Center
Tue 02:09:48 PM 40.4083 -93.5869 247° West 352 405 36,000  Level Kansas City Center
Tue 02:10:49 PM 40.3689 -93.7047 246° West 353 406 36,000  Level Kansas City Center
Tue 02:11:50 PM 40.3308 -93.8214 247° West 352 405 36,000  Level Kansas City Center
Tue 02:12:53 PM 40.2917 -93.9383 246° West 352 405 36,000  Level Kansas City Center
Tue 02:13:54 PM 40.2528 -94.0567 247° West 355 409 36,000  Level Kansas City Center
Tue 02:14:56 PM 40.2078 -94.1911 246° West 354 407 36,000  Level Kansas City Center
Tue 02:15:57 PM 40.1692 -94.3042 246° West 356 410 36,000  Level Kansas City Center
Tue 02:16:58 PM 40.1250 -94.4361 246° West 355 409 36,000  Level Kansas City Center
Tue 02:18:02 PM 40.0867 -94.5483 246° West 354 407 36,000  Level Kansas City Center
Tue 02:19:03 PM 40.0431 -94.6786 246° West 353 406 36,000  Level Kansas City Center
Tue 02:20:05 PM 40.0058 -94.7894 246° West 350 403 36,000  Level Kansas City Center
Tue 02:21:06 PM 39.9617 -94.9186 246° West 350 403 36,000  Level Kansas City Center
Tue 02:22:07 PM 39.9211 -95.0297 245° Southwest 355 409 36,000  Level Kansas City Center
Tue 02:23:08 PM 39.8794 -95.1386 244° Southwest 352 405 36,000  Level Kansas City Center
Tue 02:24:12 PM 39.8328 -95.2681 245° Southwest 353 406 36,000  Level Kansas City Center
Tue 02:25:13 PM 39.7919 -95.3781 244° Southwest 354 407 36,000  Level Kansas City Center
Tue 02:26:13 PM 39.7453 -95.5033 244° Southwest 348 400 36,000  Level Kansas City Center
Tue 02:27:17 PM 39.7044 -95.6133 244° Southwest 353 406 36,000  Level Kansas City Center
Tue 02:28:17 PM 39.6569 -95.7392 244° Southwest 350 403 36,000  Level Kansas City Center
Tue 02:29:18 PM 39.6144 -95.8489 243° Southwest 357 411 36,000  Level Kansas City Center
Tue 02:30:22 PM 39.5672 -95.9758 244° Southwest 352 405 36,000  Level Kansas City Center
Tue 02:31:24 PM 39.5256 -96.0833 243° Southwest 350 403 36,000  Level Kansas City Center
Tue 02:32:25 PM 39.4847 -96.1911 244° Southwest 351 404 36,000  Level Kansas City Center
Tue 02:33:25 PM 39.4408 -96.3028 243° Southwest 350 403 36,000  Level Kansas City Center
Tue 02:34:28 PM 39.3897 -96.4392 244° Southwest 350 403 36,000  Level Kansas City Center
Tue 02:35:30 PM 39.3467 -96.5492 243° Southwest 348 400 36,000  Level Kansas City Center
Tue 02:36:31 PM 39.3036 -96.6564 243° Southwest 350 403 36,000  Level Kansas City Center
Tue 02:37:31 PM 39.2550 -96.7825 244° Southwest 352 405 36,000  Level Kansas City Center
Tue 02:38:33 PM 39.2119 -96.8914 243° Southwest 355 409 36,000  Level Kansas City Center
Tue 02:39:37 PM 39.1636 -97.0167 244° Southwest 351 404 36,000  Level Kansas City Center
Tue 02:40:38 PM 39.1214 -97.1239 243° Southwest 350 403 36,000  Level Kansas City Center
Tue 02:41:39 PM 39.0806 -97.2322 244° Southwest 350 403 36,000  Level Kansas City Center
Tue 02:42:40 PM 39.0317 -97.3567 243° Southwest 349 402 36,000  Level Kansas City Center
Tue 02:43:44 PM 38.9892 -97.4628 243° Southwest 349 402 36,000  Level Kansas City Center
Tue 02:44:46 PM 38.9397 -97.5858 243° Southwest 347 399 36,000  Level Kansas City Center
Tue 02:45:47 PM 38.9031 -97.6947 247° West 348 400 36,000  Level Kansas City Center
Tue 02:46:49 PM 38.8631 -97.8253 249° West 351 404 36,000  Level Kansas City Center
Tue 02:47:49 PM 38.8300 -97.9275 247° West 356 410 36,000  Level Kansas City Center
Tue 02:48:53 PM 38.7872 -98.0675 249° West 354 407 36,000  Level Kansas City Center
Tue 02:49:53 PM 38.7503 -98.1842 248° West 354 407 36,000  Level Kansas City Center
Tue 02:50:56 PM 38.7136 -98.3008 248° West 355 409 36,000  Level Kansas City Center
Tue 02:51:57 PM 38.6789 -98.4164 249° West 351 404 36,000  Level Kansas City Center
Tue 02:52:59 PM 38.6417 -98.5314 248° West 351 404 36,000  Level Kansas City Center
Tue 02:53:59 PM 38.6047 -98.6464 248° West 351 404 36,000  Level Kansas City Center
Tue 02:55:03 PM 38.5692 -98.7614 248° West 350 403 36,000  Level Kansas City Center
Tue 02:56:04 PM 38.5244 -98.8986 247° West 350 403 36,000  Level Kansas City Center
Tue 02:57:05 PM 38.4872 -99.0144 248° West 352 405 36,000  Level Kansas City Center
Tue 02:58:09 PM 38.4514 -99.1303 248° West 353 406 36,000  Level Kansas City Center
Tue 02:59:09 PM 38.4125 -99.2458 247° West 354 407 36,000  Level Kansas City Center
Tue 03:00:11 PM 38.3744 -99.3606 247° West 353 406 36,000  Level Kansas City Center
Tue 03:01:12 PM 38.3369 -99.4764 248° West 354 407 36,000  Level Kansas City Center
Tue 03:02:13 PM 38.2953 -99.6061 248° West 354 407 36,000  Level Kansas City Center
Tue 03:03:16 PM 38.2589 -99.7153 247° West 352 405 36,000  Level Kansas City Center
Tue 03:04:17 PM 38.2172 -99.8422 247° West 349 402 36,000  Level Kansas City Center
Tue 03:05:18 PM 38.1808 -99.9503 247° West 348 400 36,000  Level Kansas City Center
Tue 03:06:20 PM 38.1397 -100.0764 248° West 346 398 36,000  Level Kansas City Center
Tue 03:07:22 PM 38.1031 -100.1833 246° West 345 397 36,000  Level Kansas City Center
Tue 03:08:23 PM 38.0600 -100.3108 247° West 351 404 36,000  Level Kansas City Center
Tue 03:09:24 PM 38.0228 -100.4197 247° West 352 405 36,000  Level Kansas City Center
Tue 03:10:27 PM 37.9867 -100.5286 247° West 352 405 36,000  Level Kansas City Center
Tue 03:11:28 PM 37.9431 -100.6558 247° West 353 406 36,000  Level Kansas City Center
Tue 03:12:29 PM 37.9025 -100.7628 244° Southwest 353 406 36,000  Level Kansas City Center
Tue 03:13:33 PM 37.8442 -100.8797 238° Southwest 354 407 36,000  Level Kansas City Center
Tue 03:14:34 PM 37.7956 -100.9797 238° Southwest 355 409 36,000  Level Kansas City Center
Tue 03:15:34 PM 37.7361 -101.1019 238° Southwest 353 406 36,000  Level Kansas City Center
Tue 03:16:35 PM 37.6903 -101.1958 238° Southwest 351 404 36,000  Level Kansas City Center
Tue 03:17:37 PM 37.6336 -101.3122 238° Southwest 351 404 36,000  Level Kansas City Center
Tue 03:18:41 PM 37.5844 -101.4139 239° Southwest 353 406 36,000  Level Kansas City Center
Tue 03:19:42 PM 37.5269 -101.5300 238° Southwest 351 404 36,000  Level Kansas City Center
Tue 03:20:42 PM 37.4775 -101.6322 239° Southwest 356 410 36,000  Level Kansas City Center
Tue 03:21:46 PM 37.4211 -101.7506 239° Southwest 354 407 36,000  Level Kansas City Center
Tue 03:22:47 PM 37.3908 -101.8628 251° West 354 407 36,000  Level Kansas City Center
Tue 03:23:24 PM 37.3689 -101.9367 250° West 354 407 36,000  Level Albuquerque Center
Tue 03:24:26 PM 37.3306 -102.0661 250° West 354 407 36,000  Level Albuquerque Center
Tue 03:25:28 PM 37.2975 -102.1769 249° West 353 406 36,000  Level Albuquerque Center
Tue 03:26:30 PM 37.2608 -102.3092 251° West 356 410 36,000  Level Albuquerque Center
Tue 03:27:32 PM 37.2269 -102.4192 249° West 355 409 36,000  Level Albuquerque Center
Tue 03:28:35 PM 37.1942 -102.5281 249° West 352 405 36,000  Level Albuquerque Center
Tue 03:29:37 PM 37.1569 -102.6575 250° West 353 406 36,000  Level Albuquerque Center
Tue 03:30:39 PM 37.1236 -102.7681 249° West 353 406 36,000  Level Albuquerque Center
Tue 03:31:41 PM 37.0831 -102.8978 249° West 357 411 36,000  Level Albuquerque Center
Tue 03:32:43 PM 37.0497 -103.0100 250° West 358 412 36,000  Level Albuquerque Center
Tue 03:33:45 PM 37.0100 -103.1386 249° West 354 407 36,000  Level Albuquerque Center
Tue 03:34:47 PM 36.9758 -103.2497 249° West 355 409 36,000  Level Albuquerque Center
Tue 03:35:49 PM 36.9361 -103.3789 249° West 356 410 36,000  Level Albuquerque Center
Tue 03:36:51 PM 36.9028 -103.4883 249° West 354 407 36,000  Level Albuquerque Center
Tue 03:37:53 PM 36.8689 -103.5981 249° West 352 405 36,000  Level Albuquerque Center
Tue 03:38:55 PM 36.8283 -103.7258 248° West 353 406 36,000  Level Albuquerque Center
Tue 03:39:57 PM 36.7942 -103.8358 249° West 354 407 36,000  Level Albuquerque Center
Tue 03:40:59 PM 36.7536 -103.9647 249° West 355 409 36,000  Level Albuquerque Center
Tue 03:42:01 PM 36.7186 -104.0731 248° West 353 406 36,000  Level Albuquerque Center
Tue 03:43:03 PM 36.6775 -104.2014 248° West 356 410 36,000  Level Albuquerque Center
Tue 03:44:05 PM 36.6417 -104.3128 248° West 356 410 36,000  Level Albuquerque Center
Tue 03:45:07 PM 36.6053 -104.4300 249° West 358 412 36,000  Level Albuquerque Center
Tue 03:46:09 PM 36.5675 -104.5456 248° West 359 413 36,000  Level Albuquerque Center
Tue 03:47:11 PM 36.5300 -104.6594 248° West 357 411 36,000  Level Albuquerque Center
Tue 03:48:13 PM 36.4867 -104.7931 248° West 355 409 36,000  Level Albuquerque Center
Tue 03:49:15 PM 36.4497 -104.9067 248° West 354 407 36,000  Level Albuquerque Center
Tue 03:50:18 PM 36.4122 -105.0214 248° West 355 409 36,000  Level Albuquerque Center
Tue 03:51:19 PM 36.3753 -105.1358 248° West 355 409 36,000  Level Albuquerque Center
Tue 03:52:21 PM 36.3375 -105.2469 247° West 349 402 36,000  Level Albuquerque Center
Tue 03:53:23 PM 36.3011 -105.3581 248° West 347 399 36,000  Level Albuquerque Center
Tue 03:54:25 PM 36.2647 -105.4678 248° West 344 396 36,000  Level Albuquerque Center
Tue 03:55:27 PM 36.2236 -105.5942 248° West 345 397 36,000  Level Albuquerque Center
Tue 03:56:29 PM 36.1867 -105.7042 247° West 346 398 36,000  Level Albuquerque Center
Tue 03:57:31 PM 36.1492 -105.8150 247° West 349 402 36,000  Level Albuquerque Center
Tue 03:58:33 PM 36.1122 -105.9239 247° West 347 399 36,000  Level Albuquerque Center
Tue 03:59:35 PM 36.0750 -106.0356 248° West 350 403 36,000  Level Albuquerque Center
Tue 04:00:37 PM 36.0378 -106.1453 247° West 348 400 36,000  Level Albuquerque Center
Tue 04:01:38 PM 35.9944 -106.2797 248° West 352 405 36,000  Level Albuquerque Center
Tue 04:02:40 PM 35.9564 -106.3892 247° West 350 403 36,000  Level Albuquerque Center
Tue 04:03:42 PM 35.9181 -106.5028 247° West 357 411 36,000  Level Albuquerque Center
Tue 04:04:44 PM 35.8800 -106.6106 246° West 354 407 36,000  Level Albuquerque Center
Tue 04:05:46 PM 35.8381 -106.7350 247° West 353 406 36,000  Level Albuquerque Center
Tue 04:06:47 PM 35.7997 -106.8408 246° West 353 406 36,000  Level Albuquerque Center
Tue 04:07:49 PM 35.7569 -106.9658 247° West 354 407 36,000  Level Albuquerque Center
Tue 04:08:51 PM 35.7200 -107.0731 247° West 355 409 36,000  Level Albuquerque Center
Tue 04:09:53 PM 35.6758 -107.1981 247° West 356 410 36,000  Level Albuquerque Center
Tue 04:10:54 PM 35.6358 -107.3097 246° West 365 420 36,000  Level Albuquerque Center
Tue 04:11:56 PM 35.5903 -107.4392 247° West 369 425 36,000  Level Albuquerque Center
Tue 04:12:58 PM 35.5514 -107.5492 247° West 367 422 36,000  Level Albuquerque Center
Tue 04:14:00 PM 35.5122 -107.6572 246° West 364 419 36,000  Level Albuquerque Center
Tue 04:15:02 PM 35.4678 -107.7842 247° West 363 418 36,000  Level Albuquerque Center
Tue 04:16:04 PM 35.4292 -107.8922 246° West 362 417 36,000  Level Albuquerque Center
Tue 04:17:06 PM 35.3828 -108.0194 246° West 363 418 36,000  Level Albuquerque Center
Tue 04:18:07 PM 35.3444 -108.1292 247° West 365 420 36,000  Level Albuquerque Center
Tue 04:19:09 PM 35.2978 -108.2572 246° West 366 421 36,000  Level Albuquerque Center
Tue 04:20:11 PM 35.2569 -108.3692 246° West 370 426 36,000  Level Albuquerque Center
Tue 04:21:13 PM 35.2161 -108.4806 246° West 373 429 36,000  Level Albuquerque Center
Tue 04:22:15 PM 35.1697 -108.6078 246° West 368 423 36,000  Level Albuquerque Center
Tue 04:23:17 PM 35.1300 -108.7169 246° West 366 421 36,000  Level Albuquerque Center
Tue 04:24:19 PM 35.0819 -108.8447 245° Southwest 367 422 36,000  Level Albuquerque Center
Tue 04:25:21 PM 35.0425 -108.9539 246° West 367 422 36,000  Level Albuquerque Center
Tue 04:27:25 PM 34.9539 -109.1933 246° West 372 428 36,000  Level Albuquerque Center
Tue 04:28:26 PM 34.9133 -109.3044 246° West 373 429 36,000  Level Albuquerque Center
Tue 04:29:28 PM 34.8656 -109.4344 246° West 375 432 36,000  Level Albuquerque Center
Tue 04:30:30 PM 34.8239 -109.5428 245° Southwest 372 428 36,000  Level Albuquerque Center
Tue 04:31:32 PM 34.7761 -109.6706 246° West 371 427 36,000  Level Albuquerque Center
Tue 04:32:34 PM 34.7361 -109.7814 246° West 373 429 36,000  Level Albuquerque Center
Tue 04:33:36 PM 34.6900 -109.9089 246° West 371 427 36,000  Level Albuquerque Center
Tue 04:34:38 PM 34.6494 -110.0169 246° West 368 423 36,000  Level Albuquerque Center
Tue 04:35:40 PM 34.6039 -110.1467 247° West 373 429 36,000  Level Albuquerque Center
Tue 04:36:42 PM 34.5631 -110.2586 246° West 376 433 36,000 -1,073 Level Albuquerque Center
Tue 04:37:43 PM 34.5200 -110.3611 243° Southwest 361 415 33,800 -2,195 Descending Albuquerque Center
Tue 04:38:45 PM 34.4758 -110.4917 248° West 374 430 31,500 -2,032 Descending Albuquerque Center
Tue 04:39:47 PM 34.4356 -110.5961 245° Southwest 352 405 29,600 -1,887 Descending Albuquerque Center
Tue 04:40:49 PM 34.3958 -110.6983 245° Southwest 338 389 27,600 -1,887 Descending Albuquerque Center
Tue 04:41:51 PM 34.3519 -110.7956 241° Southwest 331 381 25,700 -1,790 Descending Albuquerque Center
Tue 04:42:53 PM 34.2906 -110.8764 227° Southwest 327 376 23,900 -1,984 Descending Albuquerque Center
Tue 04:43:55 PM 34.2164 -110.9744 228° Southwest 328 377 21,600 -1,984 Descending Albuquerque Center
Tue 04:44:57 PM 34.1550 -111.0533 227° Southwest 324 373 19,800 -1,839 Descending Albuquerque Center
Tue 04:45:59 PM 34.0928 -111.1339 227° Southwest 326 375 17,800 -1,790 Descending Albuquerque Center
Tue 04:47:01 PM 34.0300 -111.2136 226° Southwest 327 376 16,100 -1,694 Descending Albuquerque Center
Tue 04:48:03 PM 33.9689 -111.2928 227° Southwest 324 373 14,300 -1,742 Descending Albuquerque Center
Tue 04:49:05 PM 33.9089 -111.3692 227° Southwest 315 362 12,500 -1,415 Descending Albuquerque Center
Tue 04:50:06 PM 33.8458 -111.4364 222° Southwest 301 346 11,400 -780 Descending Albuquerque Center
Tue 04:51:08 PM 33.7786 -111.4928 215° Southwest 293 337 10,900 -774 Descending Albuquerque Center
Tue 04:52:10 PM 33.7044 -111.5567 216° Southwest 274 315 9,800 -968 Descending Albuquerque Center
Tue 04:53:12 PM 33.6489 -111.6047 216° Southwest 249 287 8,900 -871 Descending Albuquerque Center
Tue 04:54:14 PM 33.5953 -111.6497 215° Southwest 237 273 8,000 -613 Descending Albuquerque Center
Tue 04:56:18 PM 33.4947 -111.7344 215° Southwest 217 250 7,000 -742 Descending Albuquerque Center
Tue 04:57:20 PM 33.4481 -111.7764 217° Southwest 211 243 5,700 -1,113 Descending Albuquerque Center
Tue 04:58:22 PM 33.4408 -111.8356 262° West 187 215 4,700 -1,258 Descending Albuquerque Center
Tue 04:59:24 PM 33.4403 -111.9011 269° West 164 189 3,100 -1,415 Descending Albuquerque Center
Tue 05:00:25 PM 33.4414 -111.9500 272° West 151 174 1,800 -927 Descending Albuquerque Center
Tue 05:01:27 PM 33.4394 -112.0033 268° West 149 171 1,200 -581 Descending Albuquerque Center
Tue 05:03:00 PM 33.4333 -112.0000 90° East  Level FlightAware Approximate

Login

Don't have an account? Register now (free) for customized features, flight alerts, and more!